createdAt,value
2018-04-30T00:00:14.697Z,74.35
2018-04-30T00:01:14.902Z,73.97
2018-04-30T00:02:15.108Z,74.44
2018-04-30T00:03:15.328Z,74.06
2018-04-30T00:04:15.522Z,73.68
2018-04-30T00:05:15.729Z,74.73
2018-04-30T00:06:15.925Z,74.73
2018-04-30T00:07:16.184Z,74.83
2018-04-30T00:08:16.312Z,75.12
2018-04-30T00:09:16.505Z,74.60
2018-04-30T00:10:16.705Z,74.98
2018-04-30T00:11:16.910Z,75.31
2018-04-30T00:12:17.089Z,75.46
2018-04-30T00:13:17.281Z,75.08
2018-04-30T00:14:17.477Z,75.46
2018-04-30T00:15:17.682Z,75.56
2018-04-30T00:16:17.880Z,75.27
2018-04-30T00:17:18.086Z,75.46
2018-04-30T00:18:18.282Z,75.27
2018-04-30T00:19:18.471Z,75.46
2018-04-30T00:20:18.668Z,75.65
2018-04-30T00:21:18.879Z,75.37
2018-04-30T00:22:19.087Z,75.18
2018-04-30T00:23:19.283Z,75.85
2018-04-30T00:24:19.471Z,75.37
2018-04-30T00:25:19.664Z,75.65
2018-04-30T00:26:19.852Z,75.56
2018-04-30T00:27:20.066Z,75.85
2018-04-30T00:28:20.282Z,75.85
2018-04-30T00:29:20.483Z,76.14
2018-04-30T00:30:20.691Z,75.75
2018-04-30T00:32:53.529Z,76.04
2018-04-30T00:33:53.706Z,76.52
2018-04-30T00:34:53.888Z,76.32
2018-04-30T00:35:54.228Z,76.32
2018-04-30T00:36:54.287Z,76.62
2018-04-30T00:37:54.479Z,76.23
2018-04-30T00:38:54.691Z,76.52
2018-04-30T00:39:54.892Z,76.62
2018-04-30T00:40:55.090Z,77.00
2018-04-30T00:41:55.290Z,77.19
2018-04-30T00:42:55.480Z,77.09
2018-04-30T00:43:55.684Z,77.09
2018-04-30T00:44:55.867Z,76.90
2018-04-30T00:45:56.079Z,76.81
2018-04-30T00:46:56.270Z,77.29
2018-04-30T00:47:56.460Z,76.67
2018-04-30T00:48:56.651Z,76.90
2018-04-30T00:49:56.856Z,77.06
2018-04-30T00:50:57.040Z,77.00
2018-04-30T00:51:57.234Z,77.58
2018-04-30T00:52:57.444Z,77.58
2018-04-30T00:53:57.645Z,77.25
2018-04-30T00:54:57.840Z,77.15
2018-04-30T00:55:58.033Z,77.82
2018-04-30T00:56:58.238Z,77.82
2018-04-30T00:57:58.426Z,77.63
2018-04-30T00:58:58.617Z,77.73
2018-04-30T00:59:58.829Z,77.73
2018-04-30T01:00:59.045Z,78.11
2018-04-30T01:01:59.228Z,77.73
2018-04-30T01:02:59.435Z,77.73
2018-04-30T01:03:59.636Z,77.63
2018-04-30T01:06:34.483Z,78.02
2018-04-30T01:07:32.915Z,78.20
2018-04-30T01:08:33.127Z,77.92
2018-04-30T01:09:33.336Z,78.11
2018-04-30T01:10:33.522Z,78.20
2018-04-30T01:11:33.734Z,78.11
2018-04-30T01:12:33.936Z,78.11
2018-04-30T01:13:34.124Z,77.44
2018-04-30T01:14:34.337Z,78.02
2018-04-30T01:15:34.544Z,78.11
2018-04-30T01:16:34.731Z,78.02
2018-04-30T01:17:34.934Z,77.92
2018-04-30T01:18:35.127Z,77.92
2018-04-30T01:19:35.337Z,77.92
2018-04-30T01:20:35.545Z,77.92
2018-04-30T01:21:35.736Z,78.40
2018-04-30T01:22:35.914Z,78.02
2018-04-30T01:23:36.110Z,78.20
2018-04-30T01:24:36.301Z,78.40
2018-04-30T01:25:36.474Z,78.59
2018-04-30T01:26:36.664Z,78.49
2018-04-30T01:27:36.876Z,78.59
2018-04-30T01:28:37.060Z,78.59
2018-04-30T01:29:37.267Z,78.20
2018-04-30T01:30:37.452Z,78.59
2018-04-30T01:31:37.636Z,78.49
2018-04-30T01:32:37.829Z,78.30
2018-04-30T01:33:38.014Z,78.40
2018-04-30T01:34:38.226Z,78.30
2018-04-30T01:35:38.605Z,78.20
2018-04-30T01:36:38.541Z,78.30
2018-04-30T01:37:38.732Z,79.07
2018-04-30T01:38:38.935Z,78.78
2018-04-30T01:39:39.121Z,79.36
2018-04-30T01:40:39.327Z,79.93
2018-04-30T01:41:39.526Z,79.41
2018-04-30T01:42:39.732Z,79.89
2018-04-30T01:43:39.936Z,79.89
2018-04-30T01:46:12.660Z,79.89
2018-04-30T01:47:12.910Z,80.47
2018-04-30T01:48:12.970Z,80.27
2018-04-30T01:49:13.164Z,80.76
2018-04-30T01:50:13.378Z,80.76
2018-04-30T01:51:13.575Z,80.27
2018-04-30T01:52:13.785Z,81.04
2018-04-30T01:53:13.971Z,81.48
2018-04-30T01:54:14.178Z,81.38
2018-04-30T01:55:14.364Z,81.77
2018-04-30T01:56:14.558Z,81.48
2018-04-30T01:57:14.749Z,82.15
2018-04-30T01:58:14.950Z,82.15
2018-04-30T01:59:15.134Z,82.34
2018-04-30T02:00:15.347Z,82.53
2018-04-30T02:01:15.558Z,82.24
2018-04-30T02:02:15.752Z,83.11
2018-04-30T02:03:15.952Z,82.63
2018-04-30T02:04:16.148Z,83.11
2018-04-30T02:05:16.359Z,82.82
2018-04-30T02:06:16.576Z,82.73
2018-04-30T02:07:16.771Z,82.15
2018-04-30T02:08:16.952Z,82.34
2018-04-30T02:09:17.172Z,81.86
2018-04-30T02:10:17.366Z,81.67
2018-04-30T02:11:17.571Z,79.95
2018-04-30T02:12:17.817Z,80.37
2018-04-30T02:13:18.021Z,79.41
2018-04-30T02:14:18.210Z,79.03
2018-04-30T02:15:18.404Z,79.51
2018-04-30T02:16:18.598Z,79.80
2018-04-30T02:17:18.787Z,80.18
2018-04-30T02:18:18.981Z,79.99
2018-04-30T02:19:19.184Z,79.66
2018-04-30T02:20:19.401Z,79.85
2018-04-30T02:21:19.596Z,79.75
2018-04-30T02:22:19.796Z,79.85
2018-04-30T02:23:19.986Z,80.08
2018-04-30T02:24:20.193Z,79.60
2018-04-30T02:25:20.374Z,79.89
2018-04-30T02:26:20.582Z,79.32
2018-04-30T02:27:20.795Z,79.13
2018-04-30T02:28:20.995Z,78.64
2018-04-30T02:29:21.190Z,78.55
2018-04-30T02:30:21.399Z,78.93
2018-04-30T02:31:21.583Z,78.93
2018-04-30T02:32:21.771Z,79.70
2018-04-30T02:33:21.962Z,79.60
2018-04-30T02:34:22.168Z,80.37
2018-04-30T02:35:22.356Z,80.14
2018-04-30T02:36:22.543Z,79.75
2018-04-30T02:37:22.731Z,79.85
2018-04-30T02:38:22.933Z,79.80
2018-04-30T02:39:23.120Z,79.60
2018-04-30T02:40:23.315Z,79.60
2018-04-30T02:41:23.509Z,79.47
2018-04-30T02:42:23.702Z,80.27
2018-04-30T02:43:23.892Z,80.43
2018-04-30T02:44:24.094Z,80.43
2018-04-30T02:45:24.284Z,80.90
2018-04-30T02:46:24.479Z,81.20
2018-04-30T02:47:24.652Z,81.57
2018-04-30T02:48:24.846Z,82.06
2018-04-30T02:49:25.055Z,81.48
2018-04-30T02:50:25.239Z,81.96
2018-04-30T02:51:25.435Z,81.96
2018-04-30T02:52:25.612Z,82.24
2018-04-30T02:53:25.797Z,82.34
2018-04-30T02:54:25.989Z,82.15
2018-04-30T02:55:26.201Z,82.15
2018-04-30T02:56:26.382Z,82.34
2018-04-30T02:57:26.567Z,82.24
2018-04-30T02:58:26.767Z,82.24
2018-04-30T02:59:26.958Z,82.53
2018-04-30T03:02:01.800Z,82.43
2018-04-30T03:03:00.114Z,82.92
2018-04-30T03:04:00.325Z,82.82
2018-04-30T03:05:00.530Z,82.15
2018-04-30T03:06:00.714Z,82.24
2018-04-30T03:07:00.899Z,82.24
2018-04-30T03:08:01.109Z,82.24
2018-04-30T03:09:01.290Z,82.06
2018-04-30T03:10:01.483Z,81.86
2018-04-30T03:11:01.676Z,82.15
2018-04-30T03:13:36.524Z,81.96
2018-04-30T03:14:34.942Z,82.43
2018-04-30T03:15:35.150Z,81.86
2018-04-30T03:16:35.343Z,81.77
2018-04-30T03:17:35.550Z,81.48
2018-04-30T03:18:35.746Z,81.67
2018-04-30T03:19:35.931Z,82.06
2018-04-30T03:20:36.264Z,81.67
2018-04-30T03:21:36.334Z,81.38
2018-04-30T03:22:36.523Z,81.38
2018-04-30T03:25:10.373Z,81.29
2018-04-30T03:26:08.541Z,81.48
2018-04-30T03:27:08.732Z,80.81
2018-04-30T03:28:08.910Z,81.57
2018-04-30T03:29:09.097Z,81.00
2018-04-30T03:30:09.307Z,81.10
2018-04-30T03:31:09.489Z,81.38
2018-04-30T03:32:09.682Z,80.43
2018-04-30T03:33:09.866Z,80.71
2018-04-30T03:34:10.059Z,80.52
2018-04-30T03:35:10.273Z,80.71
2018-04-30T03:36:10.583Z,80.52
2018-04-30T03:38:45.802Z,80.52
2018-04-30T03:39:43.348Z,80.52
2018-04-30T03:40:43.565Z,80.43
2018-04-30T03:43:18.906Z,80.04
2018-04-30T03:44:16.581Z,80.52
2018-04-30T03:45:16.759Z,80.62
2018-04-30T03:46:16.962Z,80.62
2018-04-30T03:47:17.148Z,80.33
2018-04-30T03:49:50.999Z,81.20
2018-04-30T03:50:49.419Z,81.20
2018-04-30T03:51:49.609Z,80.81
2018-04-30T03:52:49.817Z,81.48
2018-04-30T03:53:50.026Z,81.57
2018-04-30T03:54:50.276Z,81.57
2018-04-30T03:57:23.046Z,81.82
2018-04-30T03:58:23.232Z,81.92
2018-04-30T03:59:23.435Z,81.34
2018-04-30T04:00:23.643Z,81.34
2018-04-30T04:01:23.842Z,81.25
2018-04-30T04:02:24.066Z,81.44
2018-04-30T04:03:24.251Z,81.54
2018-04-30T04:04:24.435Z,81.34
2018-04-30T04:05:24.620Z,81.63
2018-04-30T04:06:24.820Z,81.44
2018-04-30T04:07:25.017Z,81.44
2018-04-30T04:08:25.210Z,81.34
2018-04-30T04:09:25.425Z,81.34
2018-04-30T04:10:25.614Z,81.34
2018-04-30T04:11:25.790Z,81.34
2018-04-30T04:13:58.511Z,81.54
2018-04-30T04:14:58.712Z,81.34
2018-04-30T04:15:58.901Z,81.34
2018-04-30T04:16:59.101Z,81.44
2018-04-30T04:17:59.280Z,81.25
2018-04-30T04:18:59.462Z,80.67
2018-04-30T04:21:31.777Z,80.77
2018-04-30T04:22:31.955Z,81.63
2018-04-30T04:23:32.144Z,80.87
2018-04-30T04:24:32.346Z,81.05
2018-04-30T04:25:32.536Z,80.87
2018-04-30T04:26:32.737Z,81.63
2018-04-30T04:27:32.927Z,81.44
2018-04-30T04:28:33.127Z,81.34
2018-04-30T04:29:33.319Z,81.73
2018-04-30T04:30:33.508Z,81.44
2018-04-30T04:31:33.711Z,81.34
2018-04-30T04:32:33.949Z,81.73
2018-04-30T04:33:34.132Z,81.68
2018-04-30T04:36:08.476Z,81.44
2018-04-30T04:37:07.023Z,81.54
2018-04-30T04:38:07.210Z,81.44
2018-04-30T04:39:07.390Z,81.25
2018-04-30T04:41:40.235Z,81.44
2018-04-30T04:42:40.361Z,81.63
2018-04-30T04:43:40.550Z,81.15
2018-04-30T04:44:40.729Z,81.25
2018-04-30T04:45:40.976Z,80.96
2018-04-30T04:46:41.155Z,80.77
2018-04-30T04:47:41.343Z,80.48
2018-04-30T04:48:41.532Z,80.29
2018-04-30T04:49:41.725Z,80.19
2018-04-30T04:50:41.913Z,80.48
2018-04-30T04:51:42.123Z,80.19
2018-04-30T04:52:42.321Z,80.00
2018-04-30T04:53:42.530Z,79.62
2018-04-30T04:54:42.726Z,79.81
2018-04-30T04:55:42.943Z,79.91
2018-04-30T04:58:17.786Z,79.43
2018-04-30T04:59:15.955Z,78.86
2018-04-30T05:00:16.156Z,78.09
2018-04-30T05:01:16.433Z,77.90
2018-04-30T05:02:16.523Z,77.70
2018-04-30T05:03:16.690Z,77.33
2018-04-30T05:04:16.874Z,77.70
2018-04-30T05:05:17.061Z,78.19
2018-04-30T05:06:17.253Z,77.61
2018-04-30T05:07:17.461Z,77.70
2018-04-30T05:08:17.672Z,78.09
2018-04-30T05:09:17.866Z,77.42
2018-04-30T05:10:18.069Z,77.67
2018-04-30T05:11:18.256Z,77.19
2018-04-30T05:12:18.442Z,77.38
2018-04-30T05:13:18.650Z,77.38
2018-04-30T05:14:18.838Z,77.09
2018-04-30T05:15:19.014Z,77.19
2018-04-30T05:16:19.226Z,77.19
2018-04-30T05:17:19.424Z,77.00
2018-04-30T05:19:51.740Z,77.38
2018-04-30T05:20:51.991Z,77.67
2018-04-30T05:21:52.100Z,77.76
2018-04-30T05:22:52.617Z,77.57
2018-04-30T05:23:52.437Z,77.86
2018-04-30T05:24:52.645Z,77.67
2018-04-30T05:25:52.835Z,77.67
2018-04-30T05:26:53.029Z,76.90
2018-04-30T05:27:53.235Z,77.48
2018-04-30T05:28:53.434Z,77.95
2018-04-30T05:29:53.636Z,77.76
2018-04-30T05:30:53.831Z,77.76
2018-04-30T05:31:54.021Z,77.38
2018-04-30T05:32:54.289Z,77.38
2018-04-30T05:33:54.408Z,77.34
2018-04-30T05:34:54.602Z,77.34
2018-04-30T05:35:54.803Z,77.44
2018-04-30T05:36:55.003Z,77.06
2018-04-30T05:37:55.210Z,76.96
2018-04-30T05:38:55.415Z,76.86
2018-04-30T05:39:55.631Z,76.86
2018-04-30T05:40:55.827Z,76.00
2018-04-30T05:41:56.028Z,76.00
2018-04-30T05:42:56.213Z,75.34
2018-04-30T05:43:56.420Z,75.71
2018-04-30T05:44:56.617Z,76.10
2018-04-30T05:45:56.818Z,76.10
2018-04-30T05:46:57.041Z,76.20
2018-04-30T05:47:57.323Z,76.00
2018-04-30T05:48:57.451Z,75.52
2018-04-30T05:49:57.665Z,75.52
2018-04-30T05:50:57.846Z,75.52
2018-04-30T05:51:58.046Z,75.91
2018-04-30T05:52:58.235Z,75.91
2018-04-30T05:53:58.423Z,76.00
2018-04-30T05:54:58.643Z,76.29
2018-04-30T05:55:58.824Z,75.91
2018-04-30T05:56:59.023Z,76.29
2018-04-30T05:57:59.205Z,76.00
2018-04-30T05:58:59.400Z,76.20
2018-04-30T05:59:59.592Z,76.00
2018-04-30T06:00:59.783Z,75.52
2018-04-30T06:01:59.963Z,75.43
2018-04-30T06:03:00.145Z,75.34
2018-04-30T06:04:00.341Z,75.24
2018-04-30T06:05:00.534Z,75.14
2018-04-30T06:06:00.744Z,75.20
2018-04-30T06:07:00.938Z,75.43
2018-04-30T06:08:01.155Z,75.10
2018-04-30T06:09:01.350Z,75.52
2018-04-30T06:10:01.546Z,75.24
2018-04-30T06:11:01.744Z,74.63
2018-04-30T06:12:01.936Z,74.24
2018-04-30T06:13:02.142Z,74.63
2018-04-30T06:14:02.327Z,74.48
2018-04-30T06:15:02.546Z,74.09
2018-04-30T06:16:02.755Z,73.77
2018-04-30T06:17:02.948Z,73.99
2018-04-30T06:18:03.144Z,74.09
2018-04-30T06:19:03.357Z,74.09
2018-04-30T06:21:38.199Z,73.61
2018-04-30T06:22:35.866Z,73.33
2018-04-30T06:23:36.079Z,73.23
2018-04-30T06:24:36.284Z,73.04
2018-04-30T06:25:36.480Z,73.23
2018-04-30T06:26:36.763Z,73.14
2018-04-30T06:27:36.909Z,73.04
2018-04-30T06:28:37.124Z,73.14
2018-04-30T06:29:37.328Z,72.75
2018-04-30T06:30:37.513Z,72.22
2018-04-30T06:31:37.705Z,72.41
2018-04-30T06:32:37.898Z,72.08
2018-04-30T06:33:38.150Z,72.02
2018-04-30T06:34:38.334Z,71.93
2018-04-30T06:35:38.551Z,71.83
2018-04-30T06:36:38.739Z,70.50
2018-04-30T06:37:38.977Z,70.05
2018-04-30T06:38:39.174Z,71.01
2018-04-30T06:41:13.018Z,69.19
2018-04-30T06:42:11.686Z,68.94
2018-04-30T06:43:11.889Z,68.90
2018-04-30T06:44:12.094Z,69.00
2018-04-30T06:45:12.294Z,68.23
2018-04-30T06:46:12.477Z,67.85
2018-04-30T06:47:12.682Z,67.56
2018-04-30T06:48:12.896Z,66.93
2018-04-30T06:49:13.100Z,66.41
2018-04-30T06:50:13.307Z,66.13
2018-04-30T06:51:13.496Z,65.94
2018-04-30T06:52:13.703Z,65.58
2018-04-30T06:53:13.902Z,65.49
2018-04-30T06:54:14.114Z,65.49
2018-04-30T06:55:14.328Z,65.58
2018-04-30T06:56:14.540Z,65.20
2018-04-30T06:57:14.746Z,65.39
2018-04-30T06:58:14.931Z,65.68
2018-04-30T06:59:15.168Z,65.36
2018-04-30T07:00:15.297Z,65.94
2018-04-30T07:01:15.446Z,66.03
2018-04-30T07:02:15.632Z,66.51
2018-04-30T07:04:47.960Z,66.89
2018-04-30T07:05:48.133Z,66.70
2018-04-30T07:08:23.485Z,67.11
2018-04-30T07:09:21.044Z,66.25
2018-04-30T07:10:21.215Z,65.30
2018-04-30T07:11:21.406Z,64.47
2018-04-30T07:12:21.605Z,64.47
2018-04-30T07:13:21.870Z,62.62
2018-04-30T07:14:22.086Z,59.77
2018-04-30T07:15:22.270Z,58.17
2018-04-30T07:16:22.546Z,59.93
2018-04-30T07:17:22.787Z,61.02
2018-04-30T07:18:22.856Z,58.13
2018-04-30T07:19:23.058Z,55.76
2018-04-30T07:20:23.242Z,56.82
2018-04-30T07:21:23.436Z,56.56
2018-04-30T07:22:23.630Z,57.56
2018-04-30T07:23:23.827Z,60.09
2018-04-30T07:24:24.026Z,61.88
2018-04-30T07:25:24.220Z,63.39
2018-04-30T07:26:24.434Z,64.05
2018-04-30T07:27:24.642Z,63.03
2018-04-30T07:28:24.837Z,62.96
2018-04-30T07:29:25.041Z,62.81
2018-04-30T07:30:25.220Z,63.86
2018-04-30T07:31:25.435Z,64.59
2018-04-30T07:32:25.658Z,65.45
2018-04-30T07:33:25.847Z,65.84
2018-04-30T07:34:26.082Z,67.14
2018-04-30T07:35:26.401Z,66.86
2018-04-30T07:36:26.484Z,67.91
2018-04-30T07:37:26.665Z,67.78
2018-04-30T07:38:26.878Z,68.45
2018-04-30T07:39:27.064Z,69.21
2018-04-30T07:41:59.427Z,69.12
2018-04-30T07:42:59.602Z,69.41
2018-04-30T07:43:59.816Z,70.36
2018-04-30T07:45:00.005Z,70.46
2018-04-30T07:46:00.303Z,70.56
2018-04-30T07:47:00.395Z,70.14
2018-04-30T07:48:00.629Z,70.23
2018-04-30T07:49:00.830Z,70.71
2018-04-30T07:50:01.027Z,69.95
2018-04-30T07:51:01.226Z,70.52
2018-04-30T07:52:01.411Z,70.23
2018-04-30T07:53:01.597Z,70.52
2018-04-30T07:54:01.804Z,71.00
2018-04-30T07:55:02.024Z,70.71
2018-04-30T07:56:02.233Z,71.09
2018-04-30T07:57:02.424Z,70.90
2018-04-30T07:58:02.690Z,70.61
2018-04-30T07:59:02.871Z,70.52
2018-04-30T08:00:03.065Z,70.61
2018-04-30T08:01:03.265Z,70.52
2018-04-30T08:02:03.456Z,70.52
2018-04-30T08:03:03.745Z,70.14
2018-04-30T08:04:03.833Z,70.81
2018-04-30T08:05:04.068Z,70.81
2018-04-30T08:06:04.270Z,70.61
2018-04-30T08:07:04.476Z,70.04
2018-04-30T08:08:04.728Z,70.52
2018-04-30T08:09:04.872Z,70.42
2018-04-30T08:10:05.010Z,70.52
2018-04-30T08:11:05.258Z,70.90
2018-04-30T08:12:05.453Z,71.00
2018-04-30T08:13:05.651Z,71.67
2018-04-30T08:14:05.863Z,71.38
2018-04-30T08:15:06.072Z,71.86
2018-04-30T08:16:06.278Z,71.57
2018-04-30T08:17:06.476Z,71.76
2018-04-30T08:18:06.683Z,71.67
2018-04-30T08:19:06.877Z,71.95
2018-04-30T08:20:07.107Z,71.00
2018-04-30T08:21:07.306Z,71.67
2018-04-30T08:22:07.514Z,71.47
2018-04-30T08:23:07.708Z,71.38
2018-04-30T08:24:07.912Z,70.52
2018-04-30T08:25:08.103Z,70.42
2018-04-30T08:26:08.309Z,70.23
2018-04-30T08:27:08.569Z,69.95
2018-04-30T08:28:08.779Z,70.04
2018-04-30T08:29:08.979Z,70.14
2018-04-30T08:30:09.165Z,69.66
2018-04-30T08:31:09.369Z,69.66
2018-04-30T08:32:09.555Z,69.76
2018-04-30T08:33:09.742Z,70.81
2018-04-30T08:34:09.936Z,70.61
2018-04-30T08:35:10.149Z,70.61
2018-04-30T08:36:10.369Z,70.42
2018-04-30T08:37:10.561Z,70.48
2018-04-30T08:38:10.757Z,70.29
2018-04-30T08:39:10.986Z,70.20
2018-04-30T08:40:11.187Z,70.67
2018-04-30T08:41:11.363Z,70.39
2018-04-30T08:42:11.559Z,70.58
2018-04-30T08:43:11.744Z,71.44
2018-04-30T08:45:44.615Z,70.87
2018-04-30T08:46:44.782Z,71.82
2018-04-30T08:47:44.971Z,71.92
2018-04-30T08:48:45.180Z,72.14
2018-04-30T08:49:45.363Z,71.95
2018-04-30T08:50:45.567Z,71.86
2018-04-30T08:51:45.758Z,71.72
2018-04-30T08:52:45.950Z,71.76
2018-04-30T08:53:46.165Z,71.86
2018-04-30T08:54:46.374Z,71.86
2018-04-30T08:55:46.569Z,71.19
2018-04-30T08:56:46.773Z,70.52
2018-04-30T08:57:47.002Z,70.61
2018-04-30T08:58:47.185Z,70.61
2018-04-30T08:59:47.391Z,70.71
2018-04-30T09:00:47.587Z,70.71
2018-04-30T09:01:47.779Z,70.61
2018-04-30T09:02:47.971Z,70.42
2018-04-30T09:03:48.229Z,70.61
2018-04-30T09:04:48.308Z,70.33
2018-04-30T09:05:48.513Z,70.42
2018-04-30T09:06:48.722Z,70.36
2018-04-30T09:07:48.916Z,69.95
2018-04-30T09:08:49.108Z,69.98
2018-04-30T09:09:49.315Z,69.70
2018-04-30T09:10:49.505Z,70.07
2018-04-30T09:11:49.691Z,70.27
2018-04-30T09:12:49.880Z,69.50
2018-04-30T09:13:50.087Z,70.14
2018-04-30T09:14:50.306Z,70.23
2018-04-30T09:15:50.522Z,71.19
2018-04-30T09:16:50.708Z,71.57
2018-04-30T09:17:50.902Z,71.67
2018-04-30T09:18:51.097Z,71.67
2018-04-30T09:19:51.286Z,71.09
2018-04-30T09:20:51.482Z,71.28
2018-04-30T09:21:51.677Z,70.61
2018-04-30T09:22:51.862Z,71.00
2018-04-30T09:23:52.159Z,71.38
2018-04-30T09:24:52.272Z,70.52
2018-04-30T09:25:52.484Z,71.00
2018-04-30T09:26:52.676Z,72.24
2018-04-30T09:27:52.881Z,72.05
2018-04-30T09:28:53.085Z,71.86
2018-04-30T09:29:53.260Z,72.05
2018-04-30T09:30:53.459Z,71.76
2018-04-30T09:31:53.656Z,71.42
2018-04-30T09:32:53.850Z,71.42
2018-04-30T09:33:54.056Z,71.22
2018-04-30T09:34:54.332Z,71.13
2018-04-30T09:35:54.455Z,71.51
2018-04-30T09:36:54.658Z,71.80
2018-04-30T09:37:54.851Z,71.32
2018-04-30T09:38:55.043Z,71.13
2018-04-30T09:39:55.237Z,70.94
2018-04-30T09:40:55.426Z,70.27
2018-04-30T09:41:55.625Z,70.56
2018-04-30T09:42:55.813Z,70.36
2018-04-30T09:43:56.011Z,70.65
2018-04-30T09:44:56.196Z,69.79
2018-04-30T09:45:56.398Z,69.02
2018-04-30T09:46:56.599Z,68.07
2018-04-30T09:47:56.808Z,67.69
2018-04-30T09:48:57.008Z,66.57
2018-04-30T09:49:57.207Z,65.90
2018-04-30T09:50:57.399Z,66.00
2018-04-30T09:51:57.593Z,66.00
2018-04-30T09:54:32.944Z,66.32
2018-04-30T09:55:30.489Z,66.00
2018-04-30T09:56:30.673Z,65.65
2018-04-30T09:57:30.866Z,65.45
2018-04-30T09:58:31.073Z,64.59
2018-04-30T09:59:31.293Z,64.22
2018-04-30T10:00:31.484Z,64.02
2018-04-30T10:01:31.688Z,63.64
2018-04-30T10:02:31.903Z,62.04
2018-04-30T10:03:32.136Z,60.22
2018-04-30T10:04:32.348Z,57.98
2018-04-30T10:05:32.541Z,56.31
2018-04-30T10:06:32.736Z,57.06
2018-04-30T10:07:32.926Z,57.15
2018-04-30T10:08:33.134Z,57.21
2018-04-30T10:09:33.338Z,56.64
2018-04-30T10:10:33.544Z,56.23
2018-04-30T10:11:33.761Z,56.71
2018-04-30T10:12:33.959Z,56.61
2018-04-30T10:13:34.154Z,56.61
2018-04-30T10:14:34.353Z,56.16
2018-04-30T10:15:34.559Z,56.74
2018-04-30T10:16:34.775Z,56.29
2018-04-30T10:17:34.973Z,55.33
2018-04-30T10:18:35.177Z,53.66
2018-04-30T10:19:35.387Z,52.40
2018-04-30T10:20:35.578Z,52.48
2018-04-30T10:21:35.775Z,52.00
2018-04-30T10:24:08.560Z,52.55
2018-04-30T10:25:08.742Z,53.22
2018-04-30T10:26:08.952Z,53.60
2018-04-30T10:27:09.164Z,54.17
2018-04-30T10:28:09.355Z,53.67
2018-04-30T10:29:09.620Z,54.89
2018-04-30T10:30:09.740Z,56.13
2018-04-30T10:32:43.090Z,56.77
2018-04-30T10:33:41.763Z,56.68
2018-04-30T10:34:41.968Z,56.49
2018-04-30T10:35:42.140Z,56.42
2018-04-30T10:36:42.349Z,55.36
2018-04-30T10:37:42.672Z,54.91
2018-04-30T10:38:42.703Z,53.70
2018-04-30T10:39:42.905Z,49.57
2018-04-30T10:40:43.117Z,47.13
2018-04-30T10:41:43.311Z,46.93
2018-04-30T10:42:43.499Z,45.13
2018-04-30T10:43:43.684Z,44.55
2018-04-30T10:46:18.535Z,43.18
2018-04-30T10:47:16.709Z,44.26
2018-04-30T10:48:16.906Z,45.29
2018-04-30T10:49:17.098Z,45.47
2018-04-30T10:50:17.311Z,45.64
2018-04-30T10:51:17.504Z,46.12
2018-04-30T10:52:17.699Z,46.59
2018-04-30T10:53:17.897Z,47.80
2018-04-30T10:54:18.115Z,49.52
2018-04-30T10:55:18.325Z,49.38
2018-04-30T10:56:18.549Z,49.84
2018-04-30T10:57:18.780Z,51.18
2018-04-30T10:58:18.974Z,50.70
2018-04-30T10:59:19.187Z,50.79
2018-04-30T11:00:19.380Z,51.65
2018-04-30T11:01:19.567Z,52.04
2018-04-30T11:02:19.786Z,52.62
2018-04-30T11:03:19.970Z,51.85
2018-04-30T11:04:20.163Z,51.37
2018-04-30T11:05:20.394Z,51.28
2018-04-30T11:06:20.600Z,51.75
2018-04-30T11:07:20.813Z,51.46
2018-04-30T11:08:21.020Z,51.10
2018-04-30T11:09:21.219Z,49.60
2018-04-30T11:10:21.406Z,49.43
2018-04-30T11:11:21.594Z,49.65
2018-04-30T11:12:21.828Z,48.71
2018-04-30T11:13:21.998Z,47.08
2018-04-30T11:14:22.209Z,45.73
2018-04-30T11:15:22.400Z,45.42
2018-04-30T11:16:22.590Z,46.17
2018-04-30T11:17:22.802Z,46.84
2018-04-30T11:18:23.014Z,47.32
2018-04-30T11:19:23.208Z,47.61
2018-04-30T11:20:23.401Z,47.99
2018-04-30T11:21:23.602Z,47.39
2018-04-30T11:22:23.800Z,47.97
2018-04-30T11:23:23.991Z,48.74
2018-04-30T11:24:24.182Z,48.54
2018-04-30T11:25:24.375Z,48.44
2018-04-30T11:26:24.603Z,48.74
2018-04-30T11:27:24.793Z,48.35
2018-04-30T11:28:25.000Z,48.38
2018-04-30T11:29:25.192Z,48.47
2018-04-30T11:30:25.392Z,48.49
2018-04-30T11:31:25.577Z,46.98
2018-04-30T11:32:25.792Z,45.64
2018-04-30T11:33:26.013Z,45.73
2018-04-30T11:34:26.197Z,45.06
2018-04-30T11:35:26.402Z,45.35
2018-04-30T11:36:26.608Z,45.35
2018-04-30T11:37:26.806Z,45.28
2018-04-30T11:38:27.025Z,45.45
2018-04-30T11:39:27.220Z,45.45
2018-04-30T11:40:27.415Z,45.90
2018-04-30T11:41:27.629Z,46.89
2018-04-30T11:42:27.815Z,46.48
2018-04-30T11:43:28.026Z,46.45
2018-04-30T11:44:28.321Z,46.77
2018-04-30T11:45:28.399Z,47.15
2018-04-30T11:46:28.588Z,46.84
2018-04-30T11:47:28.785Z,46.45
2018-04-30T11:48:28.975Z,45.71
2018-04-30T11:49:29.187Z,45.52
2018-04-30T11:50:29.388Z,45.14
2018-04-30T11:51:29.587Z,45.25
2018-04-30T11:52:29.795Z,44.89
2018-04-30T11:53:30.012Z,43.23
2018-04-30T11:54:30.223Z,43.12
2018-04-30T11:55:30.433Z,43.02
2018-04-30T11:56:30.618Z,43.67
2018-04-30T11:57:30.812Z,43.77
2018-04-30T11:58:31.015Z,44.27
2018-04-30T11:59:31.217Z,44.54
2018-04-30T12:00:31.410Z,44.15
2018-04-30T12:01:31.598Z,45.14
2018-04-30T12:02:31.873Z,44.37
2018-04-30T12:03:31.994Z,44.27
2018-04-30T12:04:32.206Z,44.08
2018-04-30T12:05:32.389Z,43.67
2018-04-30T12:06:32.574Z,44.70
2018-04-30T12:07:32.787Z,45.18
2018-04-30T12:08:33.007Z,45.40
2018-04-30T12:09:33.245Z,45.00
2018-04-30T12:10:33.436Z,45.57
2018-04-30T12:11:33.666Z,45.95
2018-04-30T12:12:33.856Z,45.50
2018-04-30T12:13:34.066Z,45.95
2018-04-30T12:14:34.289Z,46.07
2018-04-30T12:15:34.477Z,45.68
2018-04-30T12:16:34.712Z,45.40
2018-04-30T12:17:34.859Z,45.78
2018-04-30T12:18:35.046Z,45.40
2018-04-30T12:19:35.255Z,45.50
2018-04-30T12:20:35.448Z,45.76
2018-04-30T12:21:35.641Z,45.50
2018-04-30T12:22:35.833Z,45.11
2018-04-30T12:23:36.036Z,44.94
2018-04-30T12:24:36.245Z,44.44
2018-04-30T12:25:36.438Z,44.82
2018-04-30T12:26:36.633Z,45.01
2018-04-30T12:27:36.871Z,45.09
2018-04-30T12:28:37.082Z,44.90
2018-04-30T12:29:37.269Z,45.28
2018-04-30T12:30:37.474Z,45.09
2018-04-30T12:31:37.667Z,45.18
2018-04-30T12:32:37.867Z,45.00
2018-04-30T12:33:38.154Z,45.37
2018-04-30T12:34:38.268Z,45.57
2018-04-30T12:35:38.434Z,45.68
2018-04-30T12:36:38.635Z,45.68
2018-04-30T12:37:38.829Z,45.21
2018-04-30T12:38:39.039Z,44.54
2018-04-30T12:39:39.238Z,45.21
2018-04-30T12:40:39.434Z,44.56
2018-04-30T12:41:39.635Z,43.98
2018-04-30T12:42:39.839Z,45.32
2018-04-30T12:43:40.079Z,44.08
2018-04-30T12:44:40.247Z,44.37
2018-04-30T12:45:40.448Z,45.23
2018-04-30T12:46:40.636Z,44.94
2018-04-30T12:47:40.855Z,45.23
2018-04-30T12:48:41.048Z,45.21
2018-04-30T12:49:41.251Z,44.92
2018-04-30T12:50:41.505Z,45.40
2018-04-30T12:51:41.625Z,45.30
2018-04-30T12:52:41.842Z,45.50
2018-04-30T12:53:42.041Z,45.40
2018-04-30T12:54:42.242Z,45.40
2018-04-30T12:55:42.458Z,45.50
2018-04-30T12:56:42.656Z,45.09
2018-04-30T12:57:42.872Z,45.67
2018-04-30T12:58:43.062Z,45.95
2018-04-30T12:59:43.256Z,45.88
2018-04-30T13:00:43.460Z,46.07
2018-04-30T13:01:43.658Z,46.07
2018-04-30T13:02:43.861Z,45.30
2018-04-30T13:03:44.053Z,44.82
2018-04-30T13:04:44.243Z,45.59
2018-04-30T13:05:44.451Z,45.59
2018-04-30T13:06:44.657Z,46.17
2018-04-30T13:07:44.866Z,45.68
2018-04-30T13:08:45.081Z,46.65
2018-04-30T13:09:45.279Z,45.98
2018-04-30T13:10:45.482Z,46.43
2018-04-30T13:11:45.725Z,46.91
2018-04-30T13:12:45.812Z,47.30
2018-04-30T13:13:46.007Z,47.87
2018-04-30T13:14:46.239Z,47.85
2018-04-30T13:15:46.438Z,47.56
2018-04-30T13:16:46.632Z,48.13
2018-04-30T13:17:46.841Z,47.85
2018-04-30T13:18:47.074Z,47.77
2018-04-30T13:19:47.281Z,47.68
2018-04-30T13:20:47.478Z,47.89
2018-04-30T13:21:47.681Z,47.32
2018-04-30T13:22:47.893Z,46.74
2018-04-30T13:23:48.089Z,46.84
2018-04-30T13:24:48.289Z,47.22
2018-04-30T13:25:48.483Z,47.13
2018-04-30T13:26:48.696Z,47.61
2018-04-30T13:27:48.878Z,46.74
2018-04-30T13:28:49.083Z,47.22
2018-04-30T13:29:49.269Z,47.51
2018-04-30T13:30:49.475Z,47.41
2018-04-30T13:31:49.669Z,46.94
2018-04-30T13:32:49.879Z,47.03
2018-04-30T13:33:50.088Z,47.51
2018-04-30T13:36:22.830Z,47.80